Impacts TAF Board INFO
FOR SITUATIONAL AWARENESS. NOT TO BE USED FOR FLIGHT PLANNING PURPOSES.
IDs:

KCVG - Cincinnati Intl, KY, US

Issued at 1739 UTC 21 Jul 2017
Updated at 2036 UTC 21 Jul 2017
Potential Impact None Slight Moderate High
Time1952Z 21/21Z 21/22Z 21/23Z 22/00Z 22/01Z 22/02Z 22/03Z 22/04Z 22/05Z 22/06Z 22/07Z 22/08Z 22/09Z>>
Type OBS PRVL PRVL PRVL PRVL PRVL PRVL PRVL PRVL PRVL PRVL PRVL PRVL PRVL
VIS 10 >6 >6 >6 >6 >6 >6 >6 >6 >6 >6 >6 >6 >6
CIG -- -- 45 45 45 200 200 200 200 200 200 200 200 200
Cover SCT SCT BKN BKN BKN BKN BKN BKN BKN BKN BKN BKN BKN BKN
FltCat VFR VFR VFR VFR VFR VFR VFR VFR VFR VFR VFR VFR VFR VFR
WX -- -- -- -- -- -- -- -- -- -- -- -- -- --
WDir 250 200 250 250 250 VRB VRB VRB VRB VRB VRB VRB VRB VRB
WSpd 7 8 6 6 6 3 3 3 3 3 3 3 3 3
WGst -- -- -- -- -- -- -- -- -- -- -- -- -- --

Raw TAF
KCVG 211739Z 2118/2224 20008KT P6SM SCT040 SCT200
  FM212200 25006KT P6SM BKN045
  FM220100 VRB03KT P6SM SCT045 BKN200
  FM221400 23010G18KT P6SM SCT045


Raw METAR
KCVG 211952Z 25007KT 190V290 10SM FEW031 FEW250 SCT300 31/24 A3001 RMK AO2 SLP148 T03110244
KCVG 211852Z 21005KT 10SM FEW026 BKN190 BKN300 29/24 A3002 RMK AO2 SLP153 T02940239
KCVG 211752Z 19007KT 10SM FEW040 BKN240 BKN300 28/24 A3004 RMK AO2 SLP159 60024 T02830239 10283 20228 51002

METAR Board
Radar Display
Forecast Discussion

FOR SITUATIONAL AWARENESS. NOT TO BE USED FOR FLIGHT PLANNING PURPOSES.